Time;durP1;ratioP1;P1;durP2;ratioP2;P2;SDS_P1;SDS_P2;PMS_P1;PMS_P2;Temp;Humidity;BMP_temperature;BMP_pressure;BME280_temperature;BME280_humidity;BME280_pressure;Samples;Min_cycle;Max_cycle;Signal;HPM_P1;HPM_P2
2023/01/14 00:02:20;;;;;;;28.90;27.07;;;19.00;60.50;;;;;;5032600;28;20573;-64
2023/01/14 00:04:47;;;;;;;28.17;26.47;;;18.90;60.40;;;;;;5032610;28;20472;-65
2023/01/14 00:07:13;;;;;;;28.00;26.30;;;19.00;60.50;;;;;;5032153;28;20551;-63
2023/01/14 00:09:40;;;;;;;28.33;26.50;;;18.90;60.50;;;;;;5037832;28;20528;-62
2023/01/14 00:12:09;;;;;;;28.70;27.17;;;18.90;60.50;;;;;;5050634;28;20440;-63
2023/01/14 00:14:35;;;;;;;29.73;28.13;;;18.90;60.50;;;;;;5036738;28;20447;-61
2023/01/14 00:17:02;;;;;;;29.93;27.93;;;18.90;60.60;;;;;;5035417;28;20553;-63
2023/01/14 00:19:29;;;;;;;28.07;26.67;;;18.90;60.70;;;;;;5035623;28;20441;-62
2023/01/14 00:21:56;;;;;;;27.57;26.07;;;18.90;60.80;;;;;;5035600;28;20670;-62
2023/01/14 00:24:23;;;;;;;27.50;26.00;;;18.90;61.60;;;;;;5035548;28;20552;-60
2023/01/14 00:26:52;;;;;;;27.93;26.53;;;18.90;60.90;;;;;;5035169;28;20971;-63
2023/01/14 00:29:22;;;;;;;28.33;26.83;;;18.90;60.90;;;;;;5035325;28;20441;-63
2023/01/14 00:31:49;;;;;;;30.37;28.57;;;18.90;61.00;;;;;;5035381;28;20492;-62
2023/01/14 00:34:17;;;;;;;29.23;27.63;;;18.90;61.10;;;;;;5035402;28;20448;-63
2023/01/14 00:36:44;;;;;;;27.57;26.07;;;18.80;61.00;;;;;;5035178;28;20471;-63
2023/01/14 00:39:12;;;;;;;28.40;26.53;;;18.80;61.00;;;;;;5034592;28;20460;-62
2023/01/14 00:41:39;;;;;;;28.00;26.50;;;18.90;62.00;;;;;;5035148;28;20539;-61
2023/01/14 00:44:06;;;;;;;29.03;27.27;;;18.90;61.20;;;;;;5035223;28;20998;-63
2023/01/14 00:46:36;;;;;;;28.13;26.93;;;18.80;61.10;;;;;;5035230;28;21053;-63
2023/01/14 00:49:04;;;;;;;28.43;26.93;;;18.80;61.20;;;;;;5034811;28;20456;-62
2023/01/14 00:51:32;;;;;;;27.77;26.17;;;18.80;61.20;;;;;;5035118;28;20459;-65
2023/01/14 00:54:00;;;;;;;28.43;26.57;;;18.80;61.30;;;;;;5035075;28;20828;-63
2023/01/14 00:56:27;;;;;;;26.50;25.30;;;18.80;61.30;;;;;;5035090;28;21058;-61
2023/01/14 00:58:54;;;;;;;26.67;25.27;;;18.80;61.30;;;;;;5034624;28;20441;-63
2023/01/14 01:01:21;;;;;;;26.83;25.33;;;18.80;61.50;;;;;;5034872;28;20504;-63
2023/01/14 01:03:51;;;;;;;26.43;25.00;;;18.80;61.50;;;;;;5034931;28;20447;-62
2023/01/14 01:06:21;;;;;;;25.90;24.70;;;18.80;62.50;;;;;;5034505;28;20475;-63
2023/01/14 01:08:48;;;;;;;25.90;24.60;;;18.80;61.70;;;;;;5034702;28;20449;-62
2023/01/14 01:11:16;;;;;;;26.43;24.90;;;18.80;61.70;;;;;;5034705;28;20451;-63
2023/01/14 01:13:44;;;;;;;27.73;26.40;;;18.80;61.80;;;;;;5034385;28;20459;-63
2023/01/14 01:16:13;;;;;;;28.10;26.50;;;18.70;61.80;;;;;;5034580;28;20833;-63
2023/01/14 01:18:40;;;;;;;27.40;25.90;;;18.80;61.90;;;;;;5034725;28;20494;-61
2023/01/14 01:21:10;;;;;;;27.43;25.90;;;18.70;61.90;;;;;;5034110;28;20524;-61
2023/01/14 01:23:40;;;;;;;26.53;25.23;;;18.80;62.00;;;;;;5034692;28;20462;-62
2023/01/14 01:26:08;;;;;;;27.77;26.20;;;18.70;61.90;;;;;;5033390;28;20978;-63
2023/01/14 01:28:35;;;;;;;28.40;27.00;;;18.70;62.00;;;;;;5034446;28;20460;-63
2023/01/14 01:31:02;;;;;;;29.60;28.20;;;18.70;62.00;;;;;;5033922;28;20966;-62
2023/01/14 01:33:30;;;;;;;26.80;25.50;;;18.70;62.00;;;;;;5034315;28;20445;-62
2023/01/14 01:36:01;;;;;;;27.53;26.10;;;18.70;62.10;;;;;;5034270;28;20464;-63
2023/01/14 01:38:30;;;;;;;27.50;25.97;;;18.70;62.10;;;;;;5034375;28;20449;-63
2023/01/14 01:40:57;;;;;;;28.23;26.70;;;18.70;62.20;;;;;;5033560;28;20449;-63
2023/01/14 01:43:26;;;;;;;27.07;25.30;;;18.70;62.30;;;;;;5034046;28;20441;-62
2023/01/14 01:45:53;;;;;;;27.73;26.53;;;18.70;62.30;;;;;;5034036;28;20465;-64
2023/01/14 01:48:24;;;;;;;26.03;24.83;;;18.70;62.30;;;;;;5033924;28;20510;-63
2023/01/14 01:50:57;;;;;;;25.93;24.53;;;18.70;62.40;;;;;;5033629;28;20452;-63
2023/01/14 01:53:25;;;;;;;25.93;24.63;;;18.70;62.40;;;;;;5034176;28;20798;-63
2023/01/14 01:55:56;;;;;;;26.87;25.50;;;18.70;62.40;;;;;;5033904;28;20471;-63
2023/01/14 01:58:26;;;;;;;26.37;24.90;;;18.70;62.40;;;;;;5033989;28;20449;-63
2023/01/14 02:00:52;;;;;;;26.00;24.80;;;18.70;62.50;;;;;;5033374;28;20456;-63
2023/01/14 02:03:24;;;;;;;26.17;24.87;;;18.70;62.60;;;;;;5033744;28;20833;-63
2023/01/14 02:05:52;;;;;;;26.03;24.83;;;18.70;62.60;;;;;;5033817;28;20465;-62
2023/01/14 02:08:19;;;;;;;26.10;24.90;;;18.70;62.60;;;;;;5033326;28;20448;-62
2023/01/14 02:11:14;;;;;;;26.73;25.43;;;18.70;62.70;;;;;;5032896;28;20448;-63
2023/01/14 02:13:54;;;;;;;27.43;26.13;;;18.60;62.70;;;;;;5030469;28;20787;-62
2023/01/14 02:16:37;;;;;;;27.07;25.87;;;18.60;62.80;;;;;;5033417;28;20556;-62
2023/01/14 02:19:22;;;;;;;27.50;26.00;;;18.60;62.80;;;;;;5033255;28;20455;-63
2023/01/14 02:22:13;;;;;;;26.50;25.30;;;18.60;62.90;;;;;;5015771;28;20477;-61
2023/01/14 02:25:10;;;;;;;26.63;25.33;;;18.60;62.90;;;;;;5013700;28;20823;-62
2023/01/14 02:27:48;;;;;;;27.20;25.67;;;18.60;63.00;;;;;;5013498;28;20478;-63
2023/01/14 02:30:43;;;;;;;26.03;24.83;;;18.60;63.30;;;;;;5022405;28;21053;-62
2023/01/14 02:33:23;;;;;;;26.30;24.90;;;18.60;63.20;;;;;;5019614;28;20520;-63
2023/01/14 02:35:54;;;;;;;27.73;26.43;;;18.60;63.30;;;;;;5033110;28;20986;-64
2023/01/14 02:38:30;;;;;;;27.70;26.13;;;18.60;63.20;;;;;;5033133;28;20547;-61
2023/01/14 02:41:02;;;;;;;26.20;25.00;;;18.60;63.40;;;;;;5032609;28;20455;-62
2023/01/14 02:46:24;;;;;;;25.67;24.37;;;18.60;63.30;;;;;;5032946;28;20790;-60
2023/01/14 02:48:53;;;;;;;25.77;24.53;;;18.60;63.40;;;;;;5032777;28;20449;-62
2023/01/14 02:51:21;;;;;;;26.53;25.10;;;18.60;63.50;;;;;;5032578;28;20448;-63
2023/01/14 02:53:48;;;;;;;25.23;24.10;;;18.60;63.40;;;;;;5032824;28;20445;-62
2023/01/14 02:56:15;;;;;;;26.23;24.83;;;18.60;63.40;;;;;;5032652;28;20552;-61
2023/01/14 02:59:11;;;;;;;25.87;24.57;;;18.60;63.50;;;;;;5032466;28;20452;-62
2023/01/14 03:02:03;;;;;;;27.33;25.70;;;18.60;63.30;;;;;;5012745;28;20565;-62
2023/01/14 03:04:41;;;;;;;26.83;25.63;;;18.60;63.40;;;;;;5012793;28;20937;-61
2023/01/14 03:07:16;;;;;;;26.60;25.20;;;18.60;63.50;;;;;;5012790;28;20472;-61
2023/01/14 03:09:53;;;;;;;27.70;26.50;;;18.50;63.70;;;;;;5029880;28;20535;-62
2023/01/14 03:12:31;;;;;;;28.43;27.13;;;18.50;63.70;;;;;;5032496;28;20441;-62
2023/01/14 03:15:06;;;;;;;27.80;26.27;;;18.50;63.70;;;;;;5032440;28;20441;-62
2023/01/14 03:17:39;;;;;;;28.90;27.50;;;18.50;63.90;;;;;;5032134;28;20845;-63
2023/01/14 03:20:15;;;;;;;28.83;27.53;;;18.50;63.90;;;;;;5032084;28;20956;-61
2023/01/14 03:22:42;;;;;;;26.90;25.70;;;18.50;63.90;;;;;;5032305;28;20487;-61
2023/01/14 03:25:11;;;;;;;26.23;25.07;;;18.50;63.90;;;;;;5032236;28;20449;-62
2023/01/14 03:27:42;;;;;;;27.47;26.20;;;18.60;63.90;;;;;;5031844;28;20641;-62
2023/01/14 03:30:13;;;;;;;26.23;24.97;;;18.50;63.90;;;;;;5031881;28;20455;-60
2023/01/14 03:32:45;;;;;;;27.13;25.83;;;18.50;63.80;;;;;;5032064;28;20452;-61
2023/01/14 03:35:15;;;;;;;26.40;25.20;;;18.50;63.80;;;;;;5032158;28;20814;-63
2023/01/14 03:37:48;;;;;;;27.43;26.13;;;18.50;63.90;;;;;;5031827;28;20808;-61
2023/01/14 03:40:17;;;;;;;26.40;25.10;;;18.50;64.00;;;;;;5031804;28;20449;-60
2023/01/14 03:42:48;;;;;;;28.43;27.03;;;18.50;63.80;;;;;;5032048;28;20586;-63
2023/01/14 03:45:19;;;;;;;27.20;26.00;;;18.50;63.90;;;;;;5031900;28;20961;-62
2023/01/14 03:47:47;;;;;;;27.20;25.97;;;18.50;64.10;;;;;;5031198;28;20446;-63
2023/01/14 03:50:18;;;;;;;26.40;25.30;;;18.50;64.20;;;;;;5031717;28;20453;-63
2023/01/14 03:53:04;;;;;;;26.83;25.53;;;18.50;64.20;;;;;;5031846;28;20445;-60
2023/01/14 03:55:37;;;;;;;26.77;25.57;;;18.50;64.50;;;;;;5031744;28;20451;-62
2023/01/14 03:58:09;;;;;;;27.23;25.83;;;18.50;64.30;;;;;;5031589;28;20453;-62
2023/01/14 04:00:41;;;;;;;26.93;25.83;;;18.50;64.40;;;;;;5031559;28;20448;-63
2023/01/14 04:03:12;;;;;;;27.37;25.87;;;18.50;64.30;;;;;;5031620;28;20607;-63
2023/01/14 04:05:40;;;;;;;27.70;26.40;;;18.50;64.30;;;;;;5031617;28;20465;-63
2023/01/14 04:08:07;;;;;;;27.00;25.90;;;18.50;64.30;;;;;;5031483;28;20946;-61
2023/01/14 04:10:34;;;;;;;27.00;25.70;;;18.50;64.30;;;;;;5031523;28;20441;-63
2023/01/14 04:15:45;;;;;;;27.53;26.23;;;18.50;64.40;;;;;;5031643;28;20440;-63
2023/01/14 04:18:13;;;;;;;26.70;25.60;;;18.50;64.40;;;;;;5031064;28;20453;-62
2023/01/14 04:20:40;;;;;;;27.57;26.27;;;18.50;64.40;;;;;;5031323;28;20814;-62
2023/01/14 04:23:07;;;;;;;28.37;26.77;;;18.40;64.40;;;;;;5031248;28;20850;-63
2023/01/14 04:25:34;;;;;;;27.97;26.67;;;18.40;64.40;;;;;;5031249;28;20444;-61
2023/01/14 04:28:00;;;;;;;27.37;26.17;;;18.40;64.40;;;;;;5031093;28;20532;-61
2023/01/14 04:30:27;;;;;;;27.47;26.27;;;18.40;64.50;;;;;;5031247;28;20536;-63
2023/01/14 04:32:54;;;;;;;27.67;26.50;;;18.40;64.50;;;;;;5031426;28;20470;-61
2023/01/14 04:35:22;;;;;;;27.90;26.70;;;18.40;64.50;;;;;;5031266;28;20492;-63
2023/01/14 04:37:50;;;;;;;29.60;28.40;;;18.40;64.50;;;;;;5030390;28;20525;-63
2023/01/14 04:40:18;;;;;;;29.43;28.00;;;18.40;64.60;;;;;;5030890;28;20506;-63
2023/01/14 04:42:44;;;;;;;27.20;26.10;;;18.40;64.60;;;;;;5031292;28;21014;-63
2023/01/14 04:45:11;;;;;;;28.60;27.20;;;18.40;64.70;;;;;;5031386;28;20444;-61
2023/01/14 04:47:39;;;;;;;28.30;27.10;;;18.40;64.60;;;;;;5030828;28;20218;-63
2023/01/14 04:52:48;;;;;;;29.03;27.73;;;18.40;64.80;;;;;;5031035;28;20425;-62
2023/01/14 04:55:15;;;;;;;28.13;26.83;;;18.40;64.90;;;;;;5031359;28;20618;-61
2023/01/14 04:57:42;;;;;;;28.70;27.50;;;18.40;65.00;;;;;;5030913;28;20877;-63
2023/01/14 05:00:10;;;;;;;28.63;27.33;;;18.40;65.00;;;;;;5031973;28;20533;-62
2023/01/14 05:02:37;;;;;;;27.73;26.27;;;18.40;65.10;;;;;;5034750;28;20485;-63
2023/01/14 05:05:05;;;;;;;28.90;27.60;;;18.40;65.10;;;;;;5034928;28;20532;-63
2023/01/14 05:07:31;;;;;;;26.30;25.20;;;18.40;65.10;;;;;;5034673;28;21179;-63
2023/01/14 05:10:00;;;;;;;27.23;26.13;;;18.40;65.10;;;;;;5034496;28;20544;-63
2023/01/14 05:12:26;;;;;;;28.80;27.50;;;18.40;65.20;;;;;;5034701;28;20524;-63
2023/01/14 05:14:53;;;;;;;28.30;27.00;;;18.40;65.30;;;;;;5034661;28;20999;-63
2023/01/14 05:17:20;;;;;;;28.20;27.10;;;18.40;65.20;;;;;;5034324;28;20547;-64
2023/01/14 05:19:47;;;;;;;27.33;26.23;;;18.40;65.30;;;;;;5034436;28;20548;-63
2023/01/14 05:22:14;;;;;;;30.60;29.30;;;18.40;65.30;;;;;;5034527;28;20564;-63
2023/01/14 05:24:41;;;;;;;28.60;27.50;;;18.40;65.30;;;;;;5034506;28;20860;-63
2023/01/14 05:27:10;;;;;;;29.53;28.30;;;18.40;65.30;;;;;;5060758;22;20850;-51
2023/01/14 05:29:38;;;;;;;28.87;27.60;;;18.40;65.20;;;;;;5037331;28;20536;-55
2023/01/14 05:32:05;;;;;;;27.80;26.60;;;18.40;65.40;;;;;;5037809;28;20946;-51
2023/01/14 05:34:32;;;;;;;28.53;27.03;;;18.40;65.40;;;;;;5037910;28;20445;-51
2023/01/14 05:36:58;;;;;;;30.20;28.57;;;18.40;65.30;;;;;;5037485;28;20552;-52
2023/01/14 05:39:25;;;;;;;28.60;27.37;;;18.40;65.40;;;;;;5037594;28;20531;-51
2023/01/14 05:47:22;;;;;;;30.87;29.57;;;18.40;65.40;;;;;;5018443;28;20448;-55
2023/01/14 05:49:49;;;;;;;29.60;28.40;;;18.30;65.20;;;;;;5018235;28;20829;-52
2023/01/14 05:52:15;;;;;;;30.07;28.87;;;18.30;65.40;;;;;;5018319;28;20485;-52
2023/01/14 05:54:42;;;;;;;29.27;28.00;;;18.30;65.30;;;;;;5017834;28;20529;-51
2023/01/14 05:57:14;;;;;;;28.07;26.87;;;18.40;65.40;;;;;;5035330;28;20564;-52
2023/01/14 05:59:42;;;;;;;28.50;27.40;;;18.30;65.20;;;;;;5037180;28;20523;-53
2023/01/14 06:07:51;;;;;;;28.50;27.10;;;18.40;65.20;;;;;;4956880;29;20881;-51
2023/01/14 06:10:17;;;;;;;29.40;28.20;;;18.40;65.30;;;;;;5002181;28;20442;-52
2023/01/14 06:12:58;;;;;;;31.17;29.83;;;18.30;65.20;;;;;;5016847;28;20437;-52
2023/01/14 06:15:32;;;;;;;29.53;28.30;;;18.30;65.20;;;;;;5020979;28;20961;-51
2023/01/14 06:18:09;;;;;;;29.60;28.40;;;18.30;65.20;;;;;;5037134;28;20480;-52
2023/01/14 06:20:36;;;;;;;28.87;27.67;;;18.30;65.30;;;;;;5036933;28;20814;-52
2023/01/14 06:23:02;;;;;;;29.97;28.77;;;18.30;65.40;;;;;;5037128;28;20481;-52
2023/01/14 06:25:29;;;;;;;30.73;29.53;;;18.30;65.30;;;;;;5036164;28;20942;-53
2023/01/14 06:27:57;;;;;;;28.70;27.50;;;18.30;65.40;;;;;;5036580;28;20473;-49
2023/01/14 06:30:25;;;;;;;31.60;30.20;;;18.30;65.30;;;;;;5035283;28;20440;-51
2023/01/14 06:32:53;;;;;;;31.80;30.10;;;18.40;66.10;;;;;;5036936;28;20447;-50
2023/01/14 06:35:20;;;;;;;28.23;27.03;;;18.40;66.00;;;;;;5036129;28;20455;-51
2023/01/14 06:37:47;;;;;;;28.10;27.00;;;18.50;66.20;;;;;;5035631;28;20549;-51
2023/01/14 06:40:15;;;;;;;27.20;26.10;;;18.60;65.90;;;;;;5036415;28;20445;-51
2023/01/14 06:42:42;;;;;;;27.80;26.40;;;18.60;65.50;;;;;;5036277;28;20485;-50
2023/01/14 06:45:11;;;;;;;27.67;26.50;;;18.70;65.20;;;;;;5036408;28;20817;-51
2023/01/14 06:47:39;;;;;;;27.73;26.60;;;18.70;65.10;;;;;;5036456;28;20479;-51
2023/01/14 06:50:07;;;;;;;29.63;28.30;;;18.80;65.30;;;;;;5035729;28;20813;-50
2023/01/14 06:52:34;;;;;;;27.50;26.20;;;18.80;65.30;;;;;;5036020;28;20443;-51
2023/01/14 06:55:01;;;;;;;28.23;26.70;;;18.90;65.20;;;;;;5035757;28;20555;-57
2023/01/14 06:57:27;;;;;;;28.67;27.10;;;18.90;65.40;;;;;;5034948;28;20553;-53
2023/01/14 06:59:54;;;;;;;29.87;28.57;;;18.90;65.60;;;;;;5035061;28;21025;-56
2023/01/14 07:02:21;;;;;;;29.23;27.93;;;19.00;65.20;;;;;;5035478;28;20531;-55
2023/01/14 07:04:49;;;;;;;30.97;29.63;;;19.00;64.90;;;;;;5035103;28;20532;-54
2023/01/14 07:07:17;;;;;;;34.23;32.53;;;19.00;64.90;;;;;;5034722;28;20806;-53
2023/01/14 07:09:44;;;;;;;32.00;30.70;;;18.90;64.40;;;;;;5034707;28;20456;-55
2023/01/14 07:12:11;;;;;;;31.90;30.50;;;18.90;64.50;;;;;;5034984;28;20453;-54
2023/01/14 07:14:37;;;;;;;31.30;30.00;;;18.90;64.70;;;;;;5035082;28;20437;-53
2023/01/14 07:17:04;;;;;;;30.73;29.53;;;18.80;64.70;;;;;;5034383;28;20541;-55
2023/01/14 07:19:31;;;;;;;28.10;26.80;;;18.80;65.00;;;;;;5034847;28;20539;-56
2023/01/14 07:21:59;;;;;;;28.67;27.47;;;18.80;65.20;;;;;;5035035;28;20453;-55
2023/01/14 07:24:26;;;;;;;28.13;26.73;;;18.70;65.30;;;;;;5034077;28;20568;-55
2023/01/14 07:26:53;;;;;;;30.80;29.60;;;18.70;65.40;;;;;;5034220;28;20555;-56
2023/01/14 07:29:20;;;;;;;28.93;27.63;;;18.70;65.50;;;;;;5034116;28;20548;-54
2023/01/14 07:31:46;;;;;;;32.27;30.97;;;18.70;65.60;;;;;;5034737;28;20521;-53
2023/01/14 07:34:14;;;;;;;31.50;30.20;;;18.70;65.60;;;;;;5034587;28;21262;-57
2023/01/14 07:36:41;;;;;;;30.20;28.77;;;18.60;65.60;;;;;;5034553;28;20464;-53
2023/01/14 07:39:09;;;;;;;30.60;29.37;;;18.60;65.70;;;;;;5034492;28;20540;-55
2023/01/14 07:41:36;;;;;;;29.23;28.13;;;18.60;65.80;;;;;;5034483;28;20833;-55
2023/01/14 07:44:04;;;;;;;31.63;30.40;;;18.60;65.90;;;;;;5034192;28;20481;-57
2023/01/14 07:46:32;;;;;;;32.13;30.83;;;18.60;66.00;;;;;;5034424;28;20473;-56
2023/01/14 07:48:59;;;;;;;33.70;32.40;;;18.60;66.10;;;;;;5034415;28;20447;-53
2023/01/14 07:51:26;;;;;;;30.70;29.30;;;18.50;66.30;;;;;;5034565;28;20531;-55
2023/01/14 07:53:53;;;;;;;29.23;28.00;;;18.50;66.50;;;;;;5034059;28;20441;-53
2023/01/14 07:56:21;;;;;;;32.40;30.93;;;18.50;66.90;;;;;;5033962;28;20465;-53
2023/01/14 07:58:48;;;;;;;29.77;28.57;;;18.50;67.10;;;;;;5034168;28;20456;-55
2023/01/14 08:01:15;;;;;;;29.90;28.60;;;18.50;67.30;;;;;;5034680;28;20449;-55
2023/01/14 08:03:42;;;;;;;30.27;28.97;;;18.40;67.60;;;;;;5034129;28;20568;-56
2023/01/14 08:06:09;;;;;;;29.80;28.50;;;18.50;67.60;;;;;;5034164;28;20917;-53
2023/01/14 08:08:35;;;;;;;30.23;28.73;;;18.40;67.60;;;;;;5034323;28;20536;-53
2023/01/14 08:11:03;;;;;;;29.37;28.17;;;18.50;67.50;;;;;;5034161;28;20448;-55
2023/01/14 08:13:31;;;;;;;31.50;30.30;;;18.50;67.50;;;;;;5033929;28;20443;-52
2023/01/14 08:16:00;;;;;;;30.57;29.10;;;18.40;67.30;;;;;;5033598;28;20572;-54
2023/01/14 08:18:27;;;;;;;32.07;30.57;;;18.40;67.30;;;;;;5033907;28;20565;-57
2023/01/14 08:20:57;;;;;;;30.40;29.10;;;18.40;67.40;;;;;;5034136;28;20942;-57
2023/01/14 08:23:24;;;;;;;31.33;30.03;;;18.40;67.30;;;;;;5033528;28;21097;-53
2023/01/14 08:25:51;;;;;;;32.00;30.80;;;18.40;67.30;;;;;;5033587;28;20536;-55
2023/01/14 08:28:18;;;;;;;30.07;28.87;;;18.40;67.50;;;;;;5033762;28;20576;-53
2023/01/14 08:30:46;;;;;;;29.63;28.40;;;18.40;67.40;;;;;;5033882;28;20441;-54
2023/01/14 08:33:13;;;;;;;28.87;27.73;;;18.40;67.40;;;;;;5033666;28;20441;-55
2023/01/14 08:35:40;;;;;;;28.47;27.37;;;18.40;67.30;;;;;;5037418;28;20485;-56
2023/01/14 08:38:07;;;;;;;29.00;27.80;;;18.40;67.50;;;;;;5037783;28;20484;-56
2023/01/14 08:40:34;;;;;;;32.10;30.67;;;18.40;67.50;;;;;;5036309;28;20451;-57
2023/01/14 08:43:01;;;;;;;33.20;32.00;;;18.40;68.40;;;;;;5036077;28;20452;-52
2023/01/14 08:45:27;;;;;;;32.63;31.23;;;18.40;69.40;;;;;;5037818;28;20541;-63
2023/01/14 08:47:56;;;;;;;31.90;30.60;;;18.50;70.50;;;;;;5036259;28;20559;-61
2023/01/14 08:50:22;;;;;;;31.17;29.90;;;18.70;71.80;;;;;;5036157;28;20536;-61
2023/01/14 08:52:49;;;;;;;31.57;30.27;;;18.80;72.90;;;;;;5036072;28;20992;-58
2023/01/14 08:55:16;;;;;;;29.40;27.87;;;18.90;72.70;;;;;;5037363;28;20529;-59
2023/01/14 08:57:43;;;;;;;30.10;28.90;;;19.00;70.70;;;;;;5036623;28;20464;-60
2023/01/14 09:00:12;;;;;;;32.47;30.87;;;19.10;70.40;;;;;;5036898;28;20803;-59
2023/01/14 09:02:39;;;;;;;33.10;31.70;;;19.20;70.20;;;;;;5035774;28;21068;-58
2023/01/14 09:05:08;;;;;;;31.30;29.63;;;19.30;70.10;;;;;;5036823;28;20572;-58
2023/01/14 09:18:35;;;;;;;28.10;26.90;;;19.70;70.80;;;;;;5037053;28;20470;-54
2023/01/14 09:21:03;;;;;;;27.33;26.03;;;19.70;70.50;;;;;;5036429;28;20949;-56
2023/01/14 09:23:30;;;;;;;28.83;27.63;;;19.80;70.10;;;;;;5037636;28;20479;-56
2023/01/14 09:25:57;;;;;;;29.53;28.43;;;19.90;70.00;;;;;;5039801;28;21004;-56
2023/01/14 09:28:24;;;;;;;32.07;30.57;;;19.90;69.70;;;;;;5037877;28;20548;-55
2023/01/14 09:30:50;;;;;;;29.87;28.50;;;20.00;69.50;;;;;;5038152;28;20500;-52
2023/01/14 09:33:17;;;;;;;28.87;27.57;;;20.00;70.20;;;;;;5039377;28;21013;-58
2023/01/14 09:35:44;;;;;;;31.77;30.27;;;20.10;69.50;;;;;;5039689;28;20540;-54
2023/01/14 09:38:14;;;;;;;30.53;29.33;;;20.10;68.90;;;;;;5039578;28;20449;-52
2023/01/14 09:40:42;;;;;;;30.90;29.80;;;20.20;68.80;;;;;;5037340;28;20445;-55
2023/01/14 09:43:17;;;;;;;28.70;27.60;;;20.30;69.60;;;;;;5035957;28;20467;-56
2023/01/14 09:45:46;;;;;;;25.90;24.80;;;20.30;68.40;;;;;;5035587;28;20438;-56
2023/01/14 09:48:15;;;;;;;29.20;27.80;;;20.30;68.20;;;;;;5037416;28;20212;-55
2023/01/14 09:50:53;;;;;;;29.80;28.47;;;20.40;67.30;;;;;;5036835;28;20972;-59
2023/01/14 09:53:49;;;;;;;28.30;27.13;;;20.40;66.90;;;;;;5037017;28;20452;-57
2023/01/14 09:56:22;;;;;;;29.90;28.60;;;20.50;66.90;;;;;;5036090;28;20981;-58
2023/01/14 09:58:54;;;;;;;28.93;27.83;;;20.60;66.70;;;;;;5036426;28;20445;-59
2023/01/14 10:01:30;;;;;;;29.20;28.00;;;20.70;67.50;;;;;;5035998;28;20472;-58
2023/01/14 10:04:05;;;;;;;28.77;27.57;;;20.70;66.30;;;;;;5036248;28;20476;-59
2023/01/14 10:06:33;;;;;;;31.03;29.83;;;20.80;66.20;;;;;;5036586;28;20472;-58
2023/01/14 10:09:05;;;;;;;28.52;27.42;;;20.80;66.10;;;;;;5034718;28;20866;-57
2023/01/14 10:11:37;;;;;;;35.83;34.43;;;20.90;67.20;;;;;;5036793;28;20202;-55
2023/01/14 10:14:10;;;;;;;35.80;34.30;;;20.90;65.60;;;;;;5036622;28;20828;-51
2023/01/14 10:16:42;;;;;;;34.67;33.37;;;20.90;65.20;;;;;;5036663;28;20460;-55
2023/01/14 10:19:16;;;;;;;33.80;32.40;;;20.90;64.80;;;;;;5035801;28;20544;-56
2023/01/14 10:21:48;;;;;;;33.83;32.53;;;20.90;64.60;;;;;;5036333;28;20499;-56
2023/01/14 10:24:19;;;;;;;31.67;30.47;;;20.90;64.60;;;;;;5036023;28;20488;-55
2023/01/14 10:26:49;;;;;;;32.50;31.20;;;20.90;64.50;;;;;;5035970;28;20497;-54
2023/01/14 10:29:18;;;;;;;31.70;30.50;;;20.90;64.50;;;;;;5035063;28;20441;-54
2023/01/14 10:31:57;;;;;;;32.40;31.20;;;20.90;64.40;;;;;;5033560;28;20451;-54
2023/01/14 10:34:29;;;;;;;31.67;30.43;;;21.00;64.80;;;;;;5014882;28;20452;-53
2023/01/14 10:36:56;;;;;;;29.97;28.87;;;20.90;64.50;;;;;;5014899;28;20469;-52
2023/01/14 10:39:25;;;;;;;32.57;31.30;;;20.90;64.50;;;;;;5014857;28;20551;-58
2023/01/14 10:41:52;;;;;;;32.80;31.50;;;20.90;64.60;;;;;;5034758;28;20912;-53
2023/01/14 10:44:24;;;;;;;32.07;30.87;;;20.90;64.50;;;;;;5034613;28;20503;-56
2023/01/14 10:46:55;;;;;;;33.00;31.70;;;21.10;65.00;;;;;;5034234;28;20465;-62
2023/01/14 10:49:27;;;;;;;32.93;31.63;;;21.10;64.90;;;;;;5032005;28;20488;-61
2023/01/14 10:51:57;;;;;;;35.00;33.70;;;21.10;64.60;;;;;;5032448;28;20584;-51
2023/01/14 10:54:27;;;;;;;31.60;30.30;;;21.00;64.40;;;;;;5032111;28;20459;-56
2023/01/14 10:56:57;;;;;;;30.77;29.57;;;21.00;64.50;;;;;;5032738;28;20533;-53
2023/01/14 10:59:45;;;;;;;28.77;27.67;;;21.10;64.70;;;;;;5030915;28;20449;-57
2023/01/14 11:02:33;;;;;;;33.10;31.90;;;21.10;64.50;;;;;;5029597;28;20499;-56
2023/01/14 11:05:02;;;;;;;29.63;28.47;;;21.10;64.60;;;;;;5023748;28;20488;-55
2023/01/14 11:07:32;;;;;;;30.00;28.87;;;21.10;64.40;;;;;;5033204;28;20978;-55
2023/01/14 11:10:10;;;;;;;30.40;29.20;;;21.10;64.20;;;;;;5014986;28;20797;-56
2023/01/14 11:12:38;;;;;;;29.27;28.17;;;21.10;64.20;;;;;;5013486;28;20446;-58
2023/01/14 11:15:06;;;;;;;29.67;28.53;;;21.10;64.10;;;;;;5014199;28;20442;-59
2023/01/14 11:17:34;;;;;;;30.57;29.37;;;21.20;63.70;;;;;;5013113;28;20528;-58
2023/01/14 11:20:23;;;;;;;31.20;29.80;;;21.20;63.80;;;;;;5012736;28;20449;-59
2023/01/14 11:23:00;;;;;;;30.33;29.23;;;21.20;63.10;;;;;;5012879;28;20454;-58
2023/01/14 11:25:29;;;;;;;31.07;29.97;;;21.20;63.00;;;;;;5013404;28;20492;-56
2023/01/14 11:28:00;;;;;;;33.60;31.97;;;21.20;63.30;;;;;;5012812;28;20524;-60
2023/01/14 11:30:29;;;;;;;32.50;31.30;;;21.30;63.60;;;;;;5012364;28;20456;-58
2023/01/14 11:32:59;;;;;;;33.17;31.53;;;21.20;62.30;;;;;;5033636;28;20798;-59
2023/01/14 11:35:32;;;;;;;31.93;30.73;;;21.10;62.60;;;;;;5032479;28;20532;-60
2023/01/14 11:38:03;;;;;;;32.53;31.23;;;21.10;62.60;;;;;;5032331;28;20477;-57
2023/01/14 11:43:21;;;;;;;31.53;30.43;;;21.20;62.70;;;;;;5032888;28;21174;-61
2023/01/14 11:46:03;;;;;;;32.20;31.00;;;21.20;62.80;;;;;;5041247;22;20496;-57
2023/01/14 11:48:36;;;;;;;31.57;30.33;;;21.20;62.50;;;;;;5031595;28;20534;-62
2023/01/14 11:51:06;;;;;;;31.77;30.57;;;21.20;62.40;;;;;;5031970;28;20456;-64
2023/01/14 11:53:45;;;;;;;30.73;29.53;;;21.20;62.70;;;;;;5032331;28;20473;-64
2023/01/14 11:56:17;;;;;;;33.87;32.57;;;21.30;62.30;;;;;;5032359;28;20890;-64
2023/01/14 11:58:44;;;;;;;32.30;31.00;;;21.40;62.10;;;;;;5013397;28;20446;-63
2023/01/14 12:01:26;;;;;;;33.43;31.77;;;21.50;62.00;;;;;;5012361;28;21034;-64
2023/01/14 12:04:00;;;;;;;34.43;31.90;;;21.50;62.20;;;;;;5012334;28;20454;-62
2023/01/14 12:06:31;;;;;;;35.67;33.60;;;21.50;64.70;;;;;;5012278;28;20541;-55
2023/01/14 12:09:03;;;;;;;36.40;33.87;;;21.60;66.10;;;;;;5011565;28;20537;-61
2023/01/14 12:11:37;;;;;;;35.87;33.50;;;21.60;68.40;;;;;;5012232;28;20446;-63
2023/01/14 12:17:02;;;;;;;35.97;33.40;;;21.70;71.60;;;;;;5012290;28;20431;-63
2023/01/14 12:19:34;;;;;;;37.20;34.97;;;21.70;72.10;;;;;;5011952;28;20452;-60
2023/01/14 12:22:12;;;;;;;35.20;32.90;;;21.70;72.40;;;;;;5011928;28;20904;-58
2023/01/14 12:24:53;;;;;;;32.17;30.10;;;21.70;73.30;;;;;;5012069;28;20489;-61
2023/01/14 12:27:45;;;;;;;33.13;31.50;;;21.70;72.20;;;;;;5011420;28;20973;-61
2023/01/14 12:30:38;;;;;;;30.33;28.83;;;21.70;72.00;;;;;;5010899;28;20450;-60
2023/01/14 12:33:13;;;;;;;33.67;31.53;;;21.70;72.00;;;;;;4996496;28;20435;-61
2023/01/14 12:35:47;;;;;;;34.17;32.40;;;21.70;71.50;;;;;;4995627;28;20966;-63
2023/01/14 12:47:03;;;;;;;32.93;31.10;;;21.50;71.70;;;;;;5001815;28;20867;-55
2023/01/14 12:49:31;;;;;;;33.13;31.40;;;21.60;71.60;;;;;;5010553;28;20951;-58
2023/01/14 12:51:59;;;;;;;33.20;31.60;;;21.70;70.90;;;;;;5011644;28;20446;-58
2023/01/14 12:54:30;;;;;;;31.03;29.50;;;21.70;70.40;;;;;;5011765;28;20466;-56
2023/01/14 12:56:59;;;;;;;31.87;30.17;;;21.80;70.00;;;;;;5011571;28;20454;-56
2023/01/14 12:59:32;;;;;;;29.13;27.73;;;21.80;69.50;;;;;;5011606;28;20454;-59
2023/01/14 13:02:03;;;;;;;33.37;31.60;;;21.90;69.90;;;;;;5011483;28;20456;-59
2023/01/14 13:04:35;;;;;;;32.57;30.80;;;21.80;68.70;;;;;;5011472;28;20492;-57
2023/01/14 13:07:05;;;;;;;34.43;32.73;;;21.80;68.40;;;;;;5011462;28;20453;-56
2023/01/14 13:09:38;;;;;;;31.13;29.70;;;21.80;68.10;;;;;;5011374;28;20446;-58
2023/01/14 13:12:06;;;;;;;30.07;28.73;;;21.80;67.80;;;;;;5011545;28;20442;-55
2023/01/14 13:14:38;;;;;;;32.33;30.73;;;21.80;67.60;;;;;;5011408;28;20458;-57
2023/01/14 13:17:18;;;;;;;32.40;31.00;;;21.80;67.40;;;;;;5011416;28;20453;-60
2023/01/14 13:19:53;;;;;;;31.60;30.20;;;21.80;67.10;;;;;;5011118;28;20452;-59
2023/01/14 13:22:45;;;;;;;32.07;30.57;;;21.80;66.90;;;;;;5014161;28;20449;-58
2023/01/14 13:25:42;;;;;;;30.50;29.20;;;21.80;66.80;;;;;;5014637;28;20485;-58
2023/01/14 13:28:31;;;;;;;30.83;29.50;;;21.80;66.60;;;;;;5015062;28;20460;-51
2023/01/14 13:31:22;;;;;;;31.33;29.93;;;21.80;66.40;;;;;;5014695;28;20442;-54